createdAt,value
2022-08-31T00:02:12.724Z,15.64
2022-08-31T00:04:42.134Z,15.95
2022-08-31T00:07:10.695Z,15.87
2022-08-31T00:09:39.002Z,16.16
2022-08-31T00:12:07.427Z,16.16
2022-08-31T00:14:37.013Z,16.34
2022-08-31T00:17:05.305Z,15.82
2022-08-31T00:19:33.943Z,15.59
2022-08-31T00:22:02.940Z,15.95
2022-08-31T00:24:32.211Z,15.88
2022-08-31T00:27:00.951Z,16.10
2022-08-31T00:29:29.196Z,15.97
2022-08-31T00:31:57.547Z,15.72
2022-08-31T00:34:28.005Z,16.06
2022-08-31T00:36:56.432Z,15.63
2022-08-31T00:39:24.657Z,15.48
2022-08-31T00:41:52.994Z,15.81
2022-08-31T00:44:22.881Z,15.68
2022-08-31T00:46:51.604Z,15.39
2022-08-31T00:49:32.455Z,15.73
2022-08-31T00:52:14.781Z,15.77
2022-08-31T00:54:56.566Z,15.76
2022-08-31T00:57:37.021Z,15.89
2022-08-31T01:00:12.295Z,15.91
2022-08-31T01:02:41.640Z,15.80
2022-08-31T01:05:11.740Z,15.74
2022-08-31T01:07:48.785Z,15.71
2022-08-31T01:10:23.954Z,15.61
2022-08-31T01:12:57.242Z,15.73
2022-08-31T01:15:30.187Z,15.76
2022-08-31T01:18:04.225Z,15.76
2022-08-31T01:20:49.566Z,15.56
2022-08-31T01:23:42.868Z,15.55
2022-08-31T01:26:20.292Z,15.57
2022-08-31T01:28:50.965Z,15.89
2022-08-31T01:31:32.261Z,15.73
2022-08-31T01:34:03.267Z,15.65
2022-08-31T01:36:34.659Z,15.56
2022-08-31T01:39:06.006Z,15.52
2022-08-31T01:41:34.932Z,15.62
2022-08-31T01:44:03.400Z,15.42
2022-08-31T01:46:31.809Z,14.58
2022-08-31T01:49:02.000Z,14.72
2022-08-31T01:51:30.770Z,14.20
2022-08-31T01:53:59.097Z,14.06
2022-08-31T01:56:38.530Z,14.01
2022-08-31T01:59:11.696Z,14.48
2022-08-31T02:02:08.979Z,14.56
2022-08-31T02:04:38.392Z,14.31
2022-08-31T02:07:06.627Z,14.61
2022-08-31T02:09:35.714Z,14.85
2022-08-31T02:12:04.564Z,15.15
2022-08-31T02:14:34.676Z,14.95
2022-08-31T02:17:02.908Z,14.88
2022-08-31T02:19:31.169Z,15.04
2022-08-31T02:21:59.601Z,14.89
2022-08-31T02:24:28.805Z,14.94
2022-08-31T02:26:57.913Z,15.22
2022-08-31T02:29:27.809Z,15.28
2022-08-31T02:31:57.049Z,14.87
2022-08-31T02:34:26.022Z,15.16
2022-08-31T02:36:54.285Z,15.14
2022-08-31T02:39:23.380Z,15.46
2022-08-31T02:41:51.973Z,15.68
2022-08-31T02:44:20.250Z,15.50
2022-08-31T02:46:49.538Z,15.15
2022-08-31T02:49:40.871Z,15.41
2022-08-31T02:52:09.205Z,15.45
2022-08-31T02:54:38.236Z,15.52
2022-08-31T02:57:07.114Z,15.34
2022-08-31T02:59:35.440Z,15.39
2022-08-31T03:02:04.188Z,15.03
2022-08-31T03:04:34.249Z,15.46
2022-08-31T03:07:02.454Z,15.44
2022-08-31T03:09:32.747Z,15.56
2022-08-31T03:12:01.212Z,15.80
2022-08-31T03:14:29.551Z,15.57
2022-08-31T03:16:57.813Z,15.54
2022-08-31T03:19:26.107Z,15.63
2022-08-31T03:21:56.176Z,15.60
2022-08-31T03:24:27.331Z,15.56
2022-08-31T03:26:56.223Z,15.39
2022-08-31T03:29:24.491Z,15.53
2022-08-31T03:31:55.479Z,15.58
2022-08-31T03:34:24.842Z,15.51
2022-08-31T03:36:53.187Z,15.71
2022-08-31T03:39:21.717Z,15.40
2022-08-31T03:41:50.071Z,15.60
2022-08-31T03:44:21.793Z,15.66
2022-08-31T03:46:51.116Z,15.46
2022-08-31T03:49:20.499Z,15.43
2022-08-31T03:52:05.287Z,15.49
2022-08-31T03:54:41.691Z,15.47
2022-08-31T03:57:10.276Z,15.49
2022-08-31T03:59:38.492Z,15.45
2022-08-31T04:02:18.890Z,15.54
2022-08-31T04:05:07.459Z,15.70
2022-08-31T04:07:55.085Z,15.32
2022-08-31T04:10:44.423Z,15.42
2022-08-31T04:13:29.909Z,15.51
2022-08-31T04:16:21.917Z,15.58
2022-08-31T04:19:30.295Z,15.38
2022-08-31T04:22:04.331Z,15.66
2022-08-31T04:24:37.224Z,15.72
2022-08-31T04:27:08.238Z,15.68
2022-08-31T04:29:36.458Z,15.62
2022-08-31T04:32:04.697Z,15.23
2022-08-31T04:34:32.979Z,15.31
2022-08-31T04:37:01.817Z,15.48
2022-08-31T04:39:32.328Z,15.45
2022-08-31T04:42:01.313Z,15.49
2022-08-31T04:44:33.119Z,15.73
2022-08-31T04:47:02.611Z,15.51
2022-08-31T04:49:31.103Z,15.55
2022-08-31T04:51:59.442Z,15.58
2022-08-31T04:54:31.347Z,15.54
2022-08-31T04:56:59.627Z,15.57
2022-08-31T04:59:32.860Z,15.43
2022-08-31T05:02:17.335Z,15.53
2022-08-31T05:04:51.333Z,15.68
2022-08-31T05:07:19.564Z,15.25
2022-08-31T05:09:48.207Z,15.44
2022-08-31T05:12:16.802Z,15.39
2022-08-31T05:14:48.072Z,15.35
2022-08-31T05:17:24.543Z,15.39
2022-08-31T05:19:52.981Z,15.44
2022-08-31T05:22:21.479Z,15.38
2022-08-31T05:24:52.946Z,15.13
2022-08-31T05:27:21.472Z,15.14
2022-08-31T05:29:50.830Z,15.26
2022-08-31T05:32:39.414Z,15.14
2022-08-31T05:35:09.126Z,15.44
2022-08-31T05:37:37.585Z,15.35
2022-08-31T05:40:07.959Z,15.18
2022-08-31T05:42:37.250Z,15.22
2022-08-31T05:45:06.017Z,15.04
2022-08-31T05:47:34.423Z,15.12
2022-08-31T05:50:02.779Z,15.46
2022-08-31T05:52:37.565Z,15.42
2022-08-31T05:55:06.316Z,15.34
2022-08-31T05:57:34.596Z,15.27
2022-08-31T06:00:05.629Z,15.39
2022-08-31T06:02:42.299Z,15.60
2022-08-31T06:05:13.220Z,15.59
2022-08-31T06:07:42.428Z,15.24
2022-08-31T06:10:14.995Z,15.54
2022-08-31T06:12:47.405Z,15.74
2022-08-31T06:15:16.308Z,15.64
2022-08-31T06:17:45.288Z,15.52
2022-08-31T06:20:17.783Z,15.57
2022-08-31T06:22:48.002Z,15.45
2022-08-31T06:25:26.010Z,15.52
2022-08-31T06:27:56.575Z,15.45
2022-08-31T06:30:27.543Z,15.58
2022-08-31T06:32:58.819Z,15.70
2022-08-31T06:35:31.978Z,15.67
2022-08-31T06:38:18.541Z,15.83
2022-08-31T06:41:18.958Z,15.87
2022-08-31T06:44:10.197Z,15.96
2022-08-31T06:46:52.595Z,16.07
2022-08-31T06:49:24.347Z,16.02
2022-08-31T06:51:52.610Z,16.10
2022-08-31T06:54:29.554Z,16.06
2022-08-31T06:57:22.207Z,16.24
2022-08-31T07:00:10.079Z,16.12
2022-08-31T07:02:52.965Z,16.37
2022-08-31T07:05:25.677Z,16.53
2022-08-31T07:07:55.106Z,16.72
2022-08-31T07:10:23.450Z,16.71
2022-08-31T07:12:51.680Z,16.94
2022-08-31T07:15:19.936Z,16.93
2022-08-31T07:17:49.912Z,16.81
2022-08-31T07:20:18.138Z,17.02
2022-08-31T07:22:46.569Z,16.94
2022-08-31T07:25:36.289Z,17.14
2022-08-31T07:28:05.360Z,17.29
2022-08-31T07:30:42.300Z,17.32
2022-08-31T07:33:12.580Z,17.34
2022-08-31T07:35:47.744Z,17.50
2022-08-31T07:39:06.614Z,17.60
2022-08-31T07:41:55.288Z,17.34
2022-08-31T07:44:24.334Z,17.59
2022-08-31T07:46:55.286Z,17.76
2022-08-31T07:49:26.363Z,17.83
2022-08-31T07:52:25.067Z,18.03
2022-08-31T07:55:12.445Z,18.16
2022-08-31T07:57:54.906Z,18.18
2022-08-31T08:00:30.309Z,18.21
2022-08-31T08:03:08.012Z,18.35
2022-08-31T08:05:56.518Z,18.51
2022-08-31T08:08:36.041Z,18.33
2022-08-31T08:11:22.910Z,18.39
2022-08-31T08:14:14.514Z,18.71
2022-08-31T08:16:55.056Z,18.92
2022-08-31T08:19:35.866Z,19.06
2022-08-31T08:22:04.544Z,19.32
2022-08-31T08:24:46.855Z,19.34
2022-08-31T08:27:30.848Z,19.43
2022-08-31T08:30:16.440Z,19.75
2022-08-31T08:32:45.347Z,19.45
2022-08-31T08:35:13.800Z,19.94
2022-08-31T08:37:57.664Z,20.12
2022-08-31T08:40:42.578Z,20.34
2022-08-31T08:43:18.111Z,19.58
2022-08-31T08:45:51.758Z,20.42
2022-08-31T08:48:28.126Z,20.80
2022-08-31T08:50:56.875Z,21.17
2022-08-31T08:53:34.237Z,21.30
2022-08-31T08:56:32.827Z,21.04
2022-08-31T08:59:04.546Z,21.75
2022-08-31T09:01:37.514Z,20.64
2022-08-31T09:04:35.598Z,21.36
2022-08-31T09:08:05.188Z,20.21
2022-08-31T09:10:58.917Z,21.70
2022-08-31T09:13:55.482Z,22.11
2022-08-31T09:16:44.748Z,22.10
2022-08-31T09:19:17.382Z,21.83
2022-08-31T09:21:52.380Z,21.94
2022-08-31T09:24:27.531Z,22.19
2022-08-31T09:28:02.146Z,21.16
2022-08-31T09:30:45.352Z,20.43
2022-08-31T09:33:26.654Z,21.28
2022-08-31T09:36:19.076Z,21.68
2022-08-31T09:38:47.443Z,20.82
2022-08-31T09:41:33.415Z,21.64
2022-08-31T09:44:29.598Z,21.85
2022-08-31T09:47:05.395Z,22.08
2022-08-31T09:49:38.706Z,21.99
2022-08-31T09:52:45.212Z,21.60
2022-08-31T09:55:25.519Z,22.10
2022-08-31T09:58:03.226Z,22.25
2022-08-31T10:00:47.971Z,22.11
2022-08-31T10:03:28.363Z,21.80
2022-08-31T10:05:56.567Z,21.87
2022-08-31T10:08:38.354Z,21.60
2022-08-31T10:11:19.733Z,20.78
2022-08-31T10:14:06.286Z,20.17
2022-08-31T10:16:49.637Z,21.15
2022-08-31T10:19:30.505Z,21.52
2022-08-31T10:22:25.712Z,21.67
2022-08-31T10:25:21.673Z,22.87
2022-08-31T10:28:12.122Z,23.27
2022-08-31T10:30:58.394Z,23.62
2022-08-31T10:34:09.391Z,23.47
2022-08-31T10:36:41.536Z,23.22
2022-08-31T10:39:37.706Z,24.07
2022-08-31T10:42:25.741Z,23.71
2022-08-31T10:45:03.557Z,23.29
2022-08-31T10:47:34.514Z,20.88
2022-08-31T10:50:04.685Z,20.20
2022-08-31T10:52:46.255Z,20.83
2022-08-31T10:55:29.155Z,22.31
2022-08-31T10:58:35.999Z,22.65
2022-08-31T11:01:19.346Z,21.61
2022-08-31T11:04:28.758Z,21.98
2022-08-31T11:07:26.720Z,22.84
2022-08-31T11:10:20.082Z,22.70
2022-08-31T11:13:03.131Z,22.34
2022-08-31T11:16:01.763Z,22.85
2022-08-31T11:18:59.410Z,21.36
2022-08-31T11:21:51.061Z,22.15
2022-08-31T11:24:41.398Z,21.42
2022-08-31T11:27:24.747Z,22.14
2022-08-31T11:30:24.577Z,22.47
2022-08-31T11:33:00.528Z,22.66
2022-08-31T11:35:48.218Z,21.09
2022-08-31T11:39:03.539Z,20.56
2022-08-31T11:41:31.608Z,22.29
2022-08-31T11:44:04.451Z,22.71
2022-08-31T11:46:40.136Z,21.62
2022-08-31T11:49:10.902Z,21.75
2022-08-31T11:51:42.065Z,22.12
2022-08-31T11:54:26.630Z,22.31
2022-08-31T11:56:57.020Z,22.54
2022-08-31T11:59:30.233Z,21.63
2022-08-31T12:02:20.904Z,21.03
2022-08-31T12:04:51.178Z,20.92
2022-08-31T12:07:35.968Z,20.28
2022-08-31T12:10:07.203Z,21.21
2022-08-31T12:13:03.441Z,21.94
2022-08-31T12:16:12.179Z,22.58
2022-08-31T12:19:04.655Z,22.56
2022-08-31T12:21:57.330Z,22.18
2022-08-31T12:25:04.135Z,21.84
2022-08-31T12:28:01.352Z,23.89
2022-08-31T12:30:29.899Z,23.70
2022-08-31T12:33:08.192Z,23.52
2022-08-31T12:35:39.062Z,23.31
2022-08-31T12:38:16.922Z,23.38
2022-08-31T12:40:52.114Z,23.22
2022-08-31T12:43:49.277Z,22.27
2022-08-31T12:47:19.220Z,21.85
2022-08-31T12:50:38.215Z,22.27
2022-08-31T12:53:18.247Z,22.56
2022-08-31T12:56:35.703Z,23.54
2022-08-31T13:00:01.354Z,23.75
2022-08-31T13:02:33.364Z,21.57
2022-08-31T13:05:16.590Z,22.96
2022-08-31T13:07:44.807Z,22.90
2022-08-31T13:10:26.624Z,24.02
2022-08-31T13:13:00.737Z,22.34
2022-08-31T13:15:40.173Z,23.35
2022-08-31T13:18:26.206Z,21.71
2022-08-31T13:21:06.790Z,22.76
2022-08-31T13:23:48.200Z,22.29
2022-08-31T13:26:25.479Z,23.52
2022-08-31T13:29:00.040Z,23.79
2022-08-31T13:31:33.621Z,24.19
2022-08-31T13:34:07.542Z,24.27
2022-08-31T13:36:51.730Z,24.74
2022-08-31T13:39:39.120Z,24.87
2022-08-31T13:42:22.153Z,24.73
2022-08-31T13:44:59.791Z,24.91
2022-08-31T13:47:47.612Z,25.16
2022-08-31T13:50:52.639Z,25.15
2022-08-31T13:53:53.755Z,24.18
2022-08-31T13:56:46.493Z,24.88
2022-08-31T13:59:22.236Z,25.41
2022-08-31T14:02:22.314Z,25.61
2022-08-31T14:04:57.487Z,25.76
2022-08-31T14:07:43.963Z,25.35
2022-08-31T14:10:32.677Z,24.27
2022-08-31T14:13:14.263Z,25.14
2022-08-31T14:15:58.219Z,25.13
2022-08-31T14:18:35.631Z,22.78
2022-08-31T14:21:23.071Z,22.20
2022-08-31T14:24:03.159Z,21.93
2022-08-31T14:26:38.393Z,21.75
2022-08-31T14:29:12.879Z,21.69
2022-08-31T14:31:49.165Z,22.29
2022-08-31T14:34:34.022Z,22.71
2022-08-31T14:37:11.292Z,22.77
2022-08-31T14:39:46.458Z,22.32
2022-08-31T14:42:36.338Z,21.98
2022-08-31T14:45:18.386Z,21.81
2022-08-31T14:47:52.448Z,22.03
2022-08-31T14:50:26.389Z,22.79
2022-08-31T14:52:58.332Z,23.49
2022-08-31T14:55:30.090Z,22.34
2022-08-31T14:58:08.682Z,22.91
2022-08-31T15:00:43.912Z,23.31
2022-08-31T15:03:15.211Z,24.00
2022-08-31T15:05:43.792Z,24.16
2022-08-31T15:08:12.462Z,23.59
2022-08-31T15:10:41.206Z,24.37
2022-08-31T15:13:09.669Z,23.61
2022-08-31T15:15:38.036Z,24.11
2022-08-31T15:18:06.572Z,22.87
2022-08-31T15:20:37.688Z,23.79
2022-08-31T15:23:06.956Z,24.14
2022-08-31T15:25:36.628Z,24.00
2022-08-31T15:28:05.150Z,24.11
2022-08-31T15:30:33.907Z,23.89
2022-08-31T15:33:02.119Z,23.05
2022-08-31T15:35:31.856Z,23.62
2022-08-31T15:38:01.262Z,23.08
2022-08-31T15:40:38.569Z,23.06
2022-08-31T15:43:09.586Z,22.63
2022-08-31T15:45:38.014Z,23.24
2022-08-31T15:48:24.608Z,22.73
2022-08-31T15:51:00.601Z,22.78
2022-08-31T15:53:30.792Z,22.52
2022-08-31T15:56:06.638Z,22.69
2022-08-31T15:58:39.027Z,22.56
2022-08-31T16:01:16.648Z,22.70
2022-08-31T16:03:52.571Z,22.64
2022-08-31T16:06:28.051Z,22.65
2022-08-31T16:08:56.855Z,22.94
2022-08-31T16:11:31.205Z,23.48
2022-08-31T16:14:00.065Z,23.09
2022-08-31T16:16:34.496Z,21.96
2022-08-31T16:19:04.509Z,22.46
2022-08-31T16:21:37.364Z,22.58
2022-08-31T16:24:09.797Z,23.00
2022-08-31T16:26:43.307Z,23.00
2022-08-31T16:29:22.291Z,23.21
2022-08-31T16:31:51.124Z,23.42
2022-08-31T16:34:20.936Z,23.39
2022-08-31T16:36:53.064Z,22.96
2022-08-31T16:39:24.354Z,22.49
2022-08-31T16:41:54.613Z,22.76
2022-08-31T16:44:25.580Z,22.97
2022-08-31T16:47:07.357Z,23.04
2022-08-31T16:49:36.392Z,23.10
2022-08-31T16:52:21.296Z,23.03
2022-08-31T16:54:52.054Z,23.29
2022-08-31T16:57:27.208Z,22.76
2022-08-31T16:59:57.615Z,22.59
2022-08-31T17:02:27.188Z,22.76
2022-08-31T17:05:00.584Z,22.97
2022-08-31T17:07:29.205Z,22.73
2022-08-31T17:10:04.081Z,22.90
2022-08-31T17:12:32.769Z,22.92
2022-08-31T17:15:04.255Z,22.67
2022-08-31T17:17:33.108Z,22.48
2022-08-31T17:20:01.622Z,22.69
2022-08-31T17:22:33.775Z,22.83
2022-08-31T17:25:04.364Z,22.69
2022-08-31T17:27:34.989Z,22.73
2022-08-31T17:30:07.379Z,22.57
2022-08-31T17:32:39.476Z,22.35
2022-08-31T17:35:19.163Z,22.60
2022-08-31T17:37:47.923Z,21.68
2022-08-31T17:40:16.948Z,20.83
2022-08-31T17:42:46.295Z,20.98
2022-08-31T17:45:15.624Z,20.81
2022-08-31T17:47:44.002Z,20.60
2022-08-31T17:50:14.030Z,20.36
2022-08-31T17:52:42.287Z,20.31
2022-08-31T17:55:10.751Z,20.16
2022-08-31T17:57:40.753Z,19.96
2022-08-31T18:00:10.055Z,19.76
2022-08-31T18:02:38.526Z,19.75
2022-08-31T18:05:09.415Z,19.50
2022-08-31T18:07:41.057Z,19.65
2022-08-31T18:10:10.320Z,19.64
2022-08-31T18:12:41.939Z,19.61
2022-08-31T18:15:13.853Z,19.57
2022-08-31T18:17:43.115Z,19.12
2022-08-31T18:20:12.541Z,19.40
2022-08-31T18:22:43.590Z,19.43
2022-08-31T18:25:12.119Z,19.26
2022-08-31T18:27:40.353Z,19.31
2022-08-31T18:30:13.785Z,19.68
2022-08-31T18:32:42.452Z,19.37
2022-08-31T18:35:18.580Z,19.45
2022-08-31T18:37:46.799Z,19.57
2022-08-31T18:40:33.988Z,18.97
2022-08-31T18:43:20.770Z,18.90
2022-08-31T18:45:50.456Z,18.61
2022-08-31T18:48:25.209Z,19.10
2022-08-31T18:51:03.878Z,18.84
2022-08-31T18:53:34.634Z,19.16
2022-08-31T18:56:09.994Z,19.00
2022-08-31T18:58:39.187Z,18.90
2022-08-31T19:01:11.313Z,19.09
2022-08-31T19:03:41.128Z,19.34
2022-08-31T19:06:18.935Z,19.39
2022-08-31T19:08:48.734Z,19.65
2022-08-31T19:11:19.227Z,19.27
2022-08-31T19:13:51.155Z,18.73
2022-08-31T19:16:28.997Z,19.13
2022-08-31T19:18:58.596Z,19.04
2022-08-31T19:21:33.192Z,19.20
2022-08-31T19:24:05.409Z,18.90
2022-08-31T19:26:44.477Z,19.04
2022-08-31T19:29:14.739Z,18.97
2022-08-31T19:31:46.552Z,19.15
2022-08-31T19:34:20.877Z,19.08
2022-08-31T19:36:53.966Z,19.10
2022-08-31T19:39:27.936Z,19.04
2022-08-31T19:42:03.405Z,18.90
2022-08-31T19:44:54.333Z,18.93
2022-08-31T19:47:24.916Z,18.91
2022-08-31T19:49:53.318Z,18.99
2022-08-31T19:52:21.694Z,18.64
2022-08-31T19:54:49.883Z,18.58
2022-08-31T19:57:21.403Z,18.59
2022-08-31T19:59:49.909Z,18.75
2022-08-31T20:02:18.532Z,18.56
2022-08-31T20:04:46.854Z,18.44
2022-08-31T20:07:15.095Z,18.63
2022-08-31T20:09:43.297Z,18.25
2022-08-31T20:12:11.858Z,17.90
2022-08-31T20:14:40.127Z,18.27
2022-08-31T20:17:09.878Z,18.43
2022-08-31T20:19:39.853Z,18.63
2022-08-31T20:22:08.400Z,18.30
2022-08-31T20:24:43.875Z,18.35
2022-08-31T20:27:18.498Z,18.28
2022-08-31T20:29:48.262Z,18.15
2022-08-31T20:32:16.836Z,18.38
2022-08-31T20:34:45.113Z,18.27
2022-08-31T20:37:13.461Z,18.06
2022-08-31T20:39:42.207Z,18.10
2022-08-31T20:42:10.471Z,18.21
2022-08-31T20:44:39.029Z,17.87
2022-08-31T20:47:29.245Z,18.03
2022-08-31T20:50:01.430Z,17.83
2022-08-31T20:52:33.063Z,17.67
2022-08-31T20:55:05.431Z,17.71
2022-08-31T20:57:37.611Z,17.39
2022-08-31T21:00:10.328Z,17.61
2022-08-31T21:02:39.898Z,17.70
2022-08-31T21:07:59.873Z,17.75
2022-08-31T21:10:37.109Z,17.56
2022-08-31T21:13:09.189Z,17.39
2022-08-31T21:15:44.691Z,17.43
2022-08-31T21:18:17.674Z,17.68
2022-08-31T21:20:47.375Z,17.58
2022-08-31T21:23:15.755Z,17.39
2022-08-31T21:25:46.495Z,17.52
2022-08-31T21:28:17.521Z,17.45
2022-08-31T21:30:50.460Z,16.87
2022-08-31T21:33:19.449Z,17.02
2022-08-31T21:35:47.870Z,17.25
2022-08-31T21:38:16.280Z,17.35
2022-08-31T21:40:50.087Z,17.37
2022-08-31T21:43:18.865Z,17.47
2022-08-31T21:45:47.242Z,17.40
2022-08-31T21:48:15.420Z,17.28
2022-08-31T21:50:44.024Z,17.25
2022-08-31T21:53:12.955Z,17.13
2022-08-31T21:55:41.212Z,17.37
2022-08-31T21:58:09.615Z,17.40
2022-08-31T22:00:42.140Z,17.39
2022-08-31T22:03:10.765Z,17.46
2022-08-31T22:05:43.506Z,17.22
2022-08-31T22:08:11.786Z,16.84
2022-08-31T22:10:42.989Z,17.17
2022-08-31T22:13:13.018Z,16.88
2022-08-31T22:15:42.658Z,17.14
2022-08-31T22:18:58.319Z,17.16
2022-08-31T22:20:59.817Z,17.10
2022-08-31T22:23:28.309Z,17.24
2022-08-31T22:25:57.093Z,17.07
2022-08-31T22:28:27.755Z,17.00
2022-08-31T22:30:56.375Z,17.04
2022-08-31T22:33:24.988Z,16.97
2022-08-31T22:35:53.853Z,17.21
2022-08-31T22:38:21.988Z,17.15
2022-08-31T22:40:50.950Z,17.19
2022-08-31T22:43:19.254Z,17.07
2022-08-31T22:45:49.030Z,17.12
2022-08-31T22:48:17.575Z,16.91
2022-08-31T22:50:46.044Z,17.01
2022-08-31T22:53:14.250Z,17.24
2022-08-31T22:55:43.167Z,17.17
2022-08-31T22:58:12.884Z,17.36
2022-08-31T23:00:42.152Z,17.19
2022-08-31T23:03:14.895Z,16.98
2022-08-31T23:05:44.100Z,16.88
2022-08-31T23:08:14.853Z,17.03
2022-08-31T23:10:44.271Z,17.04
2022-08-31T23:13:12.630Z,17.12
2022-08-31T23:15:40.941Z,16.98
2022-08-31T23:18:10.073Z,16.91
2022-08-31T23:20:40.739Z,16.72
2022-08-31T23:23:10.096Z,16.93
2022-08-31T23:25:40.291Z,16.84
2022-08-31T23:28:09.556Z,16.79
2022-08-31T23:30:38.103Z,17.02
2022-08-31T23:33:07.506Z,16.79
2022-08-31T23:35:35.863Z,16.67
2022-08-31T23:38:04.051Z,16.27
2022-08-31T23:40:34.316Z,16.74
2022-08-31T23:43:03.062Z,16.71
2022-08-31T23:45:33.324Z,16.64
2022-08-31T23:48:01.552Z,16.76
2022-08-31T23:50:29.741Z,16.84
2022-08-31T23:52:57.940Z,16.90
2022-08-31T23:55:29.090Z,16.73
2022-08-31T23:57:58.422Z,17.03
